Dolphin — WTD6974 — position and weather

sailwx.info

Track history (hours):
 
Tides and Currents Weather Stations Pressure Air Temp Water Temp Dewpoint Dewpoint Depression Visibility Wind Speed Wind Dir Waves Ship Positions

Dolphin

Owner: PENN MARITIME INC, Seattle, WA. More information available from US FCC via Universal Licensing System and Coast Guard Vessel Documentation Center.

Last reported at 2016-Jul-07 09:25 UTC. Time now 2016-Aug-31 06:07 UTC.
Position N 40°39' W 074°03'.
Warning: this ship's position is 54 days out of date.

Date/timePositionNaut miles runAvg speedWind from/ knotsBaromVisibWave heightAir tempDewpointWater temp
2016-Jul-07 09:25N 40°39' W 074°03'0 0.0
2016-Jul-07 08:28N 40°39' W 074°03'0 0.0
2016-Jul-07 07:25N 40°39' W 074°03'0 0.0
2016-Jul-07 06:28N 40°39' W 074°03'0 0.0
2016-Jul-07 05:31N 40°39' W 074°03'0 0.1
2016-Jul-07 04:31N 40°39' W 074°03'0 0.0
2016-Jul-07 03:31N 40°39' W 074°03'0 0.0
2016-Jul-07 02:31N 40°39' W 074°03'0 0.0
2016-Jul-07 01:31N 40°39' W 074°03'0 0.0
2016-Jul-07 00:31N 40°39' W 074°02'0 0.0
2016-Jul-06 23:31N 40°39' W 074°03'6 0.6
2016-Jul-06 14:07N 40°39' W 074°10'4 7.2
2016-Jul-06 13:33N 40°39' W 074°05'2 1.7
2016-Jul-06 12:33N 40°39' W 074°02'0 0.1
2016-Jul-06 11:33N 40°39' W 074°03'0 0.1
2016-Jul-06 10:33N 40°39' W 074°03'0 0.0
2016-Jul-06 09:33N 40°39' W 074°03'0 0.0
2016-Jul-06 08:33N 40°39' W 074°03'0 0.0
2016-Jul-06 07:33N 40°39' W 074°03'0 0.0
2016-Jul-06 06:33N 40°39' W 074°03'0 0.0
2016-Jul-06 05:33N 40°39' W 074°03'0 0.0
2016-Jul-06 04:33N 40°39' W 074°03'0 0.2
2016-Jul-06 03:33N 40°39' W 074°03'0 0.1
2016-Jul-06 02:33N 40°39' W 074°02'0 0.0
2016-Jul-06 01:33N 40°39' W 074°03'0 0.0
2016-Jul-06 00:33N 40°39' W 074°02'0 0.0
2016-Jul-05 23:33N 40°39' W 074°02'0 0.0
2016-Jul-05 22:34N 40°39' W 074°02'6 5.6
2016-Jul-05 21:33N 40°38' W 074°10'0 0.0
2016-Jul-05 20:33N 40°38' W 074°10'0 0.0
2016-Jul-05 19:33N 40°38' W 074°10'0 0.0
2016-Jul-05 18:33N 40°38' W 074°10'0 0.0
2016-Jul-05 17:27N 40°38' W 074°10'0 0.0
2016-Jul-05 16:33N 40°38' W 074°10'1 1.2
2016-Jul-05 15:33N 40°39' W 074°08'5 4.5
2016-Jul-05 14:33N 40°39' W 074°03'1 1.2
2016-Jul-05 13:33N 40°40' W 074°02'7 6.6
2016-Jul-05 12:33N 40°47' W 073°60'1 0.2
2016-Jul-05 06:26N 40°48' W 073°59'10 5.2
2016-Jul-05 04:33N 40°39' W 074°05'2 1.5
2016-Jul-05 03:32N 40°39' W 074°07'0 0.0
2016-Jul-05 02:29N 40°39' W 074°07'0 0.0
2016-Jul-05 01:29N 40°39' W 074°07'0 0.0
2016-Jul-05 00:31N 40°39' W 074°07'0 0.0
2016-Jul-04 23:31N 40°39' W 074°07'0 0.0
2016-Jul-04 22:31N 40°39' W 074°07'0 0.0
2016-Jul-04 21:25N 40°39' W 074°07'0 0.0
2016-Jul-04 20:31N 40°39' W 074°07'0 0.0
2016-Jul-04 19:19N 40°39' W 074°07'0 0.1
2016-Jul-04 18:09N 40°39' W 074°07'0 0.0
2016-Jul-04 17:15N 40°39' W 074°07'0 0.0
2016-Jul-04 16:27N 40°39' W 074°07'0 0.0
2016-Jul-04 15:27N 40°39' W 074°07'0 0.0
2016-Jul-04 14:24N 40°39' W 074°07'0 0.0
2016-Jul-04 13:33N 40°39' W 074°07'0 0.0
2016-Jul-04 12:30N 40°39' W 074°07'0 0.2
2016-Jul-04 11:33N 40°39' W 074°07'0 0.0
2016-Jul-04 10:30N 40°39' W 074°07'0 0.0
2016-Jul-04 09:30N 40°39' W 074°07'0 0.0
2016-Jul-04 08:33N 40°39' W 074°07'0 0.0
2016-Jul-04 07:33N 40°39' W 074°07'0 0.0
2016-Jul-04 06:30N 40°39' W 074°07'0 0.0
2016-Jul-04 04:30N 40°39' W 074°07'0 0.0
2016-Jul-04 03:30N 40°39' W 074°07'0 0.0
2016-Jul-04 02:33N 40°39' W 074°07'0 0.0
2016-Jul-04 01:33N 40°39' W 074°07'0 0.1
2016-Jul-04 00:33N 40°39' W 074°07'1 0.6
2016-Jul-03 23:34N 40°39' W 074°06'2 2.4
2016-Jul-03 22:33N 40°39' W 074°03'0 0.0
2016-Jul-03 21:24N 40°39' W 074°03'0 0.1
2016-Jul-03 20:27N 40°39' W 074°03'0 0.2
2016-Jul-03 19:33N 40°39' W 074°03'0 0.0
2016-Jul-03 18:33N 40°39' W 074°03'0 0.0
2016-Jul-03 17:33N 40°39' W 074°03'0 0.0
2016-Jul-03 16:33N 40°39' W 074°03'0 0.0
2016-Jul-03 15:33N 40°39' W 074°03'0 0.0
2016-Jul-03 14:33N 40°39' W 074°03'0 0.0
2016-Jul-03 13:33N 40°39' W 074°03'4 3.6
2016-Jul-03 12:33N 40°35' W 074°02'6 4.5
2016-Jul-03 11:16N 40°30' W 073°58'  
2016-Jul-01 04:33N 42°12' W 069°57'29 5.8
2016-Jun-30 23:29N 42°35' W 069°32'7 5.7
2016-Jun-30 22:20N 42°40' W 069°27'  
Track history (hours):
 
Tides and Currents Weather Stations Pressure Air Temp Water Temp Dewpoint Dewpoint Depression Visibility Wind Speed Wind Dir Waves Ship Positions

Dolphin

Owner: PENN MARITIME INC, Seattle, WA. More information available from US FCC via Universal Licensing System and Coast Guard Vessel Documentation Center.

Last reported at 2016-Jul-07 09:25 UTC. Time now 2016-Aug-31 06:07 UTC.
Position N 40°39' W 074°03'.
Warning: this ship's position is 54 days out of date.

Date/timePositionNaut miles runAvg speedWind from/ knotsBaromVisibWave heightAir tempDewpointWater temp
2016-Jul-07 09:25N 40°39' W 074°03'0 0.0
2016-Jul-07 08:28N 40°39' W 074°03'0 0.0
2016-Jul-07 07:25N 40°39' W 074°03'0 0.0
2016-Jul-07 06:28N 40°39' W 074°03'0 0.0
2016-Jul-07 05:31N 40°39' W 074°03'0 0.1
2016-Jul-07 04:31N 40°39' W 074°03'0 0.0
2016-Jul-07 03:31N 40°39' W 074°03'0 0.0
2016-Jul-07 02:31N 40°39' W 074°03'0 0.0
2016-Jul-07 01:31N 40°39' W 074°03'0 0.0
2016-Jul-07 00:31N 40°39' W 074°02'0 0.0
2016-Jul-06 23:31N 40°39' W 074°03'6 0.6
2016-Jul-06 14:07N 40°39' W 074°10'4 7.2
2016-Jul-06 13:33N 40°39' W 074°05'2 1.7
2016-Jul-06 12:33N 40°39' W 074°02'0 0.1
2016-Jul-06 11:33N 40°39' W 074°03'0 0.1
2016-Jul-06 10:33N 40°39' W 074°03'0 0.0
2016-Jul-06 09:33N 40°39' W 074°03'0 0.0
2016-Jul-06 08:33N 40°39' W 074°03'0 0.0
2016-Jul-06 07:33N 40°39' W 074°03'0 0.0
2016-Jul-06 06:33N 40°39' W 074°03'0 0.0
2016-Jul-06 05:33N 40°39' W 074°03'0 0.0
2016-Jul-06 04:33N 40°39' W 074°03'0 0.2
2016-Jul-06 03:33N 40°39' W 074°03'0 0.1
2016-Jul-06 02:33N 40°39' W 074°02'0 0.0
2016-Jul-06 01:33N 40°39' W 074°03'0 0.0
2016-Jul-06 00:33N 40°39' W 074°02'0 0.0
2016-Jul-05 23:33N 40°39' W 074°02'0 0.0
2016-Jul-05 22:34N 40°39' W 074°02'6 5.6
2016-Jul-05 21:33N 40°38' W 074°10'0 0.0
2016-Jul-05 20:33N 40°38' W 074°10'0 0.0
2016-Jul-05 19:33N 40°38' W 074°10'0 0.0
2016-Jul-05 18:33N 40°38' W 074°10'0 0.0
2016-Jul-05 17:27N 40°38' W 074°10'0 0.0
2016-Jul-05 16:33N 40°38' W 074°10'1 1.2
2016-Jul-05 15:33N 40°39' W 074°08'5 4.5
2016-Jul-05 14:33N 40°39' W 074°03'1 1.2
2016-Jul-05 13:33N 40°40' W 074°02'7 6.6
2016-Jul-05 12:33N 40°47' W 073°60'1 0.2
2016-Jul-05 06:26N 40°48' W 073°59'10 5.2
2016-Jul-05 04:33N 40°39' W 074°05'2 1.5
2016-Jul-05 03:32N 40°39' W 074°07'0 0.0
2016-Jul-05 02:29N 40°39' W 074°07'0 0.0
2016-Jul-05 01:29N 40°39' W 074°07'0 0.0
2016-Jul-05 00:31N 40°39' W 074°07'0 0.0
2016-Jul-04 23:31N 40°39' W 074°07'0 0.0
2016-Jul-04 22:31N 40°39' W 074°07'0 0.0
2016-Jul-04 21:25N 40°39' W 074°07'0 0.0
2016-Jul-04 20:31N 40°39' W 074°07'0 0.0
2016-Jul-04 19:19N 40°39' W 074°07'0 0.1
2016-Jul-04 18:09N 40°39' W 074°07'0 0.0
2016-Jul-04 17:15N 40°39' W 074°07'0 0.0
2016-Jul-04 16:27N 40°39' W 074°07'0 0.0
2016-Jul-04 15:27N 40°39' W 074°07'0 0.0
2016-Jul-04 14:24N 40°39' W 074°07'0 0.0
2016-Jul-04 13:33N 40°39' W 074°07'0 0.0
2016-Jul-04 12:30N 40°39' W 074°07'0 0.2
2016-Jul-04 11:33N 40°39' W 074°07'0 0.0
2016-Jul-04 10:30N 40°39' W 074°07'0 0.0
2016-Jul-04 09:30N 40°39' W 074°07'0 0.0
2016-Jul-04 08:33N 40°39' W 074°07'0 0.0
2016-Jul-04 07:33N 40°39' W 074°07'0 0.0
2016-Jul-04 06:30N 40°39' W 074°07'0 0.0
2016-Jul-04 04:30N 40°39' W 074°07'0 0.0
2016-Jul-04 03:30N 40°39' W 074°07'0 0.0
2016-Jul-04 02:33N 40°39' W 074°07'0 0.0
2016-Jul-04 01:33N 40°39' W 074°07'0 0.1
2016-Jul-04 00:33N 40°39' W 074°07'1 0.6
2016-Jul-03 23:34N 40°39' W 074°06'2 2.4
2016-Jul-03 22:33N 40°39' W 074°03'0 0.0
2016-Jul-03 21:24N 40°39' W 074°03'0 0.1
2016-Jul-03 20:27N 40°39' W 074°03'0 0.2
2016-Jul-03 19:33N 40°39' W 074°03'0 0.0
2016-Jul-03 18:33N 40°39' W 074°03'0 0.0
2016-Jul-03 17:33N 40°39' W 074°03'0 0.0
2016-Jul-03 16:33N 40°39' W 074°03'0 0.0
2016-Jul-03 15:33N 40°39' W 074°03'0 0.0
2016-Jul-03 14:33N 40°39' W 074°03'0 0.0
2016-Jul-03 13:33N 40°39' W 074°03'4 3.6
2016-Jul-03 12:33N 40°35' W 074°02'6 4.5
2016-Jul-03 11:16N 40°30' W 073°58'  
2016-Jul-01 04:33N 42°12' W 069°57'29 5.8
2016-Jun-30 23:29N 42°35' W 069°32'7 5.7
2016-Jun-30 22:20N 42°40' W 069°27'  

Dump ship's entire track history